Shellbrook, Canada
Current Conditions -  °F | °C
As of 9:00 AM on Thursday 30 Oct 2014 (Local Time) from CYPA Reporting Station
Overcast Overcast  
Wind Chill: 17°   Ceiling: 2000
Heat Index: 27°   Visibility: 15mi
Dew Point: 19°   Wind: 9mph
Humidity: 74%   Direction: 80°E
Pressure: 30.49"   Gusts: NA
Location:  53.22°N, 106.4°W
Report Text: CYPA 301500Z 08008KT 15SM OVC020 M03/M07 A3049 RMK SC8 SLP351
Loading
Personal Weather Stations






























Interactive Weather Map
Tropical Storm Tracking
New forecast layout! Learn more

10-Day Weather Forecast

Advertisements
Track Severe Weather on mobile